createdAt,value
2019-02-07T00:02:29.208Z,54.42
2019-02-07T00:05:00.819Z,54.32
2019-02-07T00:07:31.782Z,55.43
2019-02-07T00:10:03.334Z,54.63
2019-02-07T00:12:35.646Z,54.23
2019-02-07T00:15:12.378Z,54.26
2019-02-07T00:17:43.820Z,54.16
2019-02-07T00:20:17.193Z,53.94
2019-02-07T00:22:51.516Z,53.66
2019-02-07T00:25:22.571Z,53.00
2019-02-07T00:30:34.746Z,52.78
2019-02-07T00:33:06.070Z,53.20
2019-02-07T00:35:37.950Z,52.90
2019-02-07T00:38:09.007Z,53.22
2019-02-07T00:40:41.872Z,53.87
2019-02-07T00:43:13.008Z,53.96
2019-02-07T00:45:44.482Z,54.06
2019-02-07T00:48:16.869Z,53.76
2019-02-07T00:50:49.611Z,54.44
2019-02-07T00:53:20.831Z,54.22
2019-02-07T00:55:52.144Z,54.28
2019-02-07T00:58:25.535Z,54.35
2019-02-07T01:00:57.717Z,54.21
2019-02-07T01:03:31.126Z,54.12
2019-02-07T01:06:02.565Z,54.09
2019-02-07T01:08:35.076Z,53.93
2019-02-07T01:11:07.342Z,54.48
2019-02-07T01:13:38.441Z,54.91
2019-02-07T01:16:09.568Z,55.22
2019-02-07T01:18:40.903Z,55.34
2019-02-07T01:21:16.765Z,55.25
2019-02-07T01:23:48.111Z,54.83
2019-02-07T01:26:21.356Z,55.07
2019-02-07T01:28:57.061Z,55.06
2019-02-07T01:31:28.525Z,55.31
2019-02-07T01:33:59.598Z,55.55
2019-02-07T01:36:30.758Z,55.55
2019-02-07T01:39:02.154Z,55.32
2019-02-07T01:41:34.569Z,55.35
2019-02-07T01:44:07.464Z,55.51
2019-02-07T01:46:38.458Z,55.00
2019-02-07T01:49:10.565Z,55.37
2019-02-07T01:51:42.266Z,55.25
2019-02-07T01:54:15.933Z,54.87
2019-02-07T01:56:48.623Z,54.65
2019-02-07T01:59:19.594Z,54.69
2019-02-07T02:01:50.614Z,55.08
2019-02-07T02:04:21.922Z,55.43
2019-02-07T02:06:53.386Z,55.26
2019-02-07T02:09:25.738Z,55.15
2019-02-07T02:11:57.061Z,55.15
2019-02-07T02:14:28.603Z,55.38
2019-02-07T02:17:00.106Z,55.53
2019-02-07T02:19:31.278Z,55.08
2019-02-07T02:22:02.686Z,55.32
2019-02-07T02:24:34.544Z,54.92
2019-02-07T02:27:07.107Z,54.92
2019-02-07T02:29:39.083Z,55.46
2019-02-07T02:32:10.689Z,55.06
2019-02-07T02:34:42.101Z,54.38
2019-02-07T02:37:13.083Z,54.13
2019-02-07T02:39:44.196Z,54.00
2019-02-07T02:42:15.815Z,54.29
2019-02-07T02:44:46.800Z,53.78
2019-02-07T02:47:19.172Z,54.09
2019-02-07T02:49:52.424Z,54.24
2019-02-07T02:52:23.437Z,54.33
2019-02-07T02:54:56.386Z,54.94
2019-02-07T02:57:27.459Z,54.75
2019-02-07T02:59:58.761Z,55.13
2019-02-07T03:02:40.834Z,55.04
2019-02-07T03:05:31.855Z,54.87
2019-02-07T03:08:23.047Z,54.53
2019-02-07T03:11:19.040Z,54.67
2019-02-07T03:14:24.531Z,54.51
2019-02-07T03:17:09.871Z,54.43
2019-02-07T03:20:08.713Z,54.54
2019-02-07T03:22:57.329Z,54.26
2019-02-07T03:25:55.040Z,53.65
2019-02-07T03:28:48.566Z,53.23
2019-02-07T03:31:38.596Z,52.63
2019-02-07T03:34:26.702Z,52.70
2019-02-07T03:37:13.368Z,52.49
2019-02-07T03:40:06.392Z,52.15
2019-02-07T03:42:56.276Z,51.58
2019-02-07T03:46:02.728Z,51.48
2019-02-07T03:49:05.627Z,51.62
2019-02-07T03:51:49.924Z,51.58
2019-02-07T03:54:42.629Z,52.67
2019-02-07T03:57:22.414Z,51.81
2019-02-07T04:00:25.683Z,51.66
2019-02-07T04:03:13.698Z,51.82
2019-02-07T04:06:08.242Z,51.79
2019-02-07T04:09:07.498Z,51.67
2019-02-07T04:12:10.937Z,51.19
2019-02-07T04:15:02.771Z,50.96
2019-02-07T04:17:52.225Z,51.10
2019-02-07T04:20:37.043Z,51.10
2019-02-07T04:23:29.496Z,51.38
2019-02-07T04:26:28.666Z,50.78
2019-02-07T04:29:18.950Z,51.30
2019-02-07T04:32:02.327Z,51.14
2019-02-07T04:34:49.649Z,51.49
2019-02-07T04:37:28.882Z,50.98
2019-02-07T04:40:18.350Z,51.15
2019-02-07T04:43:28.189Z,50.91
2019-02-07T04:46:26.632Z,51.22
2019-02-07T04:49:00.224Z,50.92
2019-02-07T04:51:53.466Z,51.14
2019-02-07T04:54:46.449Z,50.96
2019-02-07T04:57:36.331Z,51.19
2019-02-07T05:00:21.630Z,50.50
2019-02-07T05:03:05.475Z,50.99
2019-02-07T05:06:00.945Z,50.63
2019-02-07T05:09:02.905Z,50.50
2019-02-07T05:12:07.580Z,51.04
2019-02-07T05:14:52.607Z,51.29
2019-02-07T05:17:57.680Z,51.08
2019-02-07T05:21:00.070Z,50.77
2019-02-07T05:23:49.561Z,51.09
2019-02-07T05:26:27.575Z,51.06
2019-02-07T05:29:32.924Z,51.36
2019-02-07T05:32:25.783Z,51.38
2019-02-07T05:35:22.265Z,50.78
2019-02-07T05:38:18.101Z,51.32
2019-02-07T05:41:28.556Z,51.55
2019-02-07T05:44:17.498Z,51.38
2019-02-07T05:47:22.845Z,51.41
2019-02-07T05:50:11.845Z,51.65
2019-02-07T05:53:03.492Z,51.43
2019-02-07T05:56:01.863Z,51.60
2019-02-07T05:58:50.561Z,51.55
2019-02-07T06:01:42.525Z,51.57
2019-02-07T06:04:25.274Z,51.30
2019-02-07T06:07:14.382Z,51.50
2019-02-07T06:10:06.094Z,51.17
2019-02-07T06:13:05.100Z,51.23
2019-02-07T06:15:57.054Z,51.33
2019-02-07T06:18:52.557Z,51.38
2019-02-07T06:21:52.093Z,50.93
2019-02-07T06:24:42.092Z,50.72
2019-02-07T06:27:26.430Z,50.60
2019-02-07T06:30:22.551Z,50.45
2019-02-07T06:33:25.243Z,50.75
2019-02-07T06:36:19.499Z,50.18
2019-02-07T06:39:22.196Z,50.04
2019-02-07T06:42:10.739Z,49.96
2019-02-07T06:44:56.005Z,49.94
2019-02-07T06:47:47.321Z,49.91
2019-02-07T06:50:31.193Z,49.77
2019-02-07T06:53:20.941Z,49.25
2019-02-07T06:56:10.315Z,49.82
2019-02-07T06:59:06.814Z,49.50
2019-02-07T07:02:13.549Z,49.87
2019-02-07T07:05:05.191Z,49.63
2019-02-07T07:07:55.012Z,49.65
2019-02-07T07:10:45.052Z,50.17
2019-02-07T07:13:28.330Z,49.89
2019-02-07T07:16:14.144Z,49.43
2019-02-07T07:19:06.852Z,49.24
2019-02-07T07:21:57.588Z,49.45
2019-02-07T07:24:46.555Z,49.25
2019-02-07T07:27:38.348Z,48.74
2019-02-07T07:30:24.475Z,49.05
2019-02-07T07:33:15.295Z,49.11
2019-02-07T07:35:56.986Z,49.11
2019-02-07T07:38:40.209Z,49.11
2019-02-07T07:41:41.754Z,48.87
2019-02-07T07:44:31.331Z,49.07
2019-02-07T07:47:21.331Z,48.90
2019-02-07T07:50:11.679Z,48.93
2019-02-07T07:53:01.956Z,48.26
2019-02-07T07:55:52.632Z,48.01
2019-02-07T07:58:50.368Z,47.92
2019-02-07T08:01:39.537Z,47.39
2019-02-07T08:04:28.523Z,47.38
2019-02-07T08:07:18.607Z,46.93
2019-02-07T08:10:17.425Z,46.83
2019-02-07T08:13:08.071Z,47.12
2019-02-07T08:16:01.090Z,46.61
2019-02-07T08:19:09.921Z,46.42
2019-02-07T08:22:09.887Z,46.00
2019-02-07T08:25:12.153Z,46.34
2019-02-07T08:28:02.072Z,45.96
2019-02-07T08:31:04.377Z,46.02
2019-02-07T08:33:53.125Z,46.09
2019-02-07T08:36:36.054Z,46.24
2019-02-07T08:39:40.309Z,46.26
2019-02-07T08:42:39.923Z,46.36
2019-02-07T08:45:21.662Z,46.25
2019-02-07T08:48:10.357Z,46.50
2019-02-07T08:50:59.385Z,46.33
2019-02-07T08:53:44.943Z,46.42
2019-02-07T08:56:26.419Z,46.91
2019-02-07T08:59:20.106Z,47.11
2019-02-07T09:02:25.257Z,47.14
2019-02-07T09:05:14.701Z,47.34
2019-02-07T09:08:23.317Z,47.43
2019-02-07T09:11:12.138Z,47.65
2019-02-07T09:14:11.120Z,47.84
2019-02-07T09:16:59.994Z,47.99
2019-02-07T09:19:48.632Z,47.91
2019-02-07T09:22:27.025Z,48.29
2019-02-07T09:25:09.634Z,48.31
2019-02-07T09:27:58.227Z,48.85
2019-02-07T09:30:54.164Z,48.92
2019-02-07T09:33:41.245Z,48.84
2019-02-07T09:36:32.826Z,48.89
2019-02-07T09:39:23.102Z,49.10
2019-02-07T09:42:26.479Z,49.00
2019-02-07T09:45:16.464Z,48.96
2019-02-07T09:48:05.538Z,48.47
2019-02-07T09:51:04.659Z,48.41
2019-02-07T09:53:48.335Z,48.57
2019-02-07T09:56:38.554Z,48.67
2019-02-07T09:59:27.996Z,48.47
2019-02-07T10:02:11.688Z,48.72
2019-02-07T10:05:03.903Z,49.07
2019-02-07T10:07:50.995Z,49.88
2019-02-07T10:10:30.173Z,49.48
2019-02-07T10:13:18.547Z,49.34
2019-02-07T10:16:26.767Z,49.42
2019-02-07T10:19:12.372Z,49.64
2019-02-07T10:22:01.602Z,50.18
2019-02-07T10:25:00.777Z,50.46
2019-02-07T10:27:49.603Z,50.72
2019-02-07T10:30:39.659Z,51.51
2019-02-07T10:33:22.742Z,51.62
2019-02-07T10:36:22.734Z,51.78
2019-02-07T10:39:21.923Z,52.27
2019-02-07T10:42:30.220Z,52.12
2019-02-07T10:45:12.548Z,52.05
2019-02-07T10:48:04.159Z,52.40
2019-02-07T10:50:54.044Z,52.12
2019-02-07T10:53:38.469Z,52.51
2019-02-07T10:56:33.106Z,52.33
2019-02-07T10:59:24.078Z,52.42
2019-02-07T11:02:12.943Z,52.29
2019-02-07T11:05:02.874Z,52.14
2019-02-07T11:07:52.076Z,52.50
2019-02-07T11:10:49.802Z,52.49
2019-02-07T11:13:38.738Z,52.83
2019-02-07T11:16:27.680Z,52.77
2019-02-07T11:19:21.313Z,52.67
2019-02-07T11:22:09.941Z,52.69
2019-02-07T11:25:01.249Z,53.43
2019-02-07T11:28:10.163Z,53.74
2019-02-07T11:30:54.282Z,53.96
2019-02-07T11:33:39.761Z,54.78
2019-02-07T11:36:34.209Z,54.75
2019-02-07T11:39:29.738Z,54.77
2019-02-07T11:42:19.252Z,55.14
2019-02-07T11:45:05.899Z,55.69
2019-02-07T11:47:56.163Z,55.68
2019-02-07T11:50:38.917Z,55.89
2019-02-07T11:53:34.240Z,55.62
2019-02-07T11:56:42.903Z,55.73
2019-02-07T11:59:26.165Z,55.95
2019-02-07T12:02:16.258Z,57.15
2019-02-07T12:04:58.308Z,57.95
2019-02-07T12:07:52.040Z,57.85
2019-02-07T12:10:39.290Z,58.19
2019-02-07T12:13:29.319Z,58.74
2019-02-07T12:16:10.487Z,59.47
2019-02-07T12:19:03.838Z,59.71
2019-02-07T12:21:52.906Z,60.00
2019-02-07T12:24:48.753Z,60.01
2019-02-07T12:27:36.558Z,60.33
2019-02-07T12:30:30.530Z,60.18
2019-02-07T12:33:11.939Z,60.33
2019-02-07T12:36:09.109Z,60.84
2019-02-07T12:38:48.052Z,60.65
2019-02-07T12:41:52.205Z,60.86
2019-02-07T12:44:32.209Z,60.52
2019-02-07T12:47:34.543Z,60.70
2019-02-07T12:50:40.718Z,60.77
2019-02-07T12:53:20.416Z,62.32
2019-02-07T12:56:13.877Z,63.01
2019-02-07T12:58:59.583Z,63.15
2019-02-07T13:01:52.431Z,63.43
2019-02-07T13:04:41.307Z,63.47
2019-02-07T13:07:35.305Z,63.22
2019-02-07T13:10:41.705Z,62.83
2019-02-07T13:13:26.619Z,62.68
2019-02-07T13:16:14.311Z,62.69
2019-02-07T13:19:05.475Z,62.76
2019-02-07T13:21:59.161Z,62.84
2019-02-07T13:24:51.073Z,62.87
2019-02-07T13:27:41.553Z,63.52
2019-02-07T13:30:26.130Z,64.36
2019-02-07T13:33:15.240Z,64.58
2019-02-07T13:35:59.393Z,64.41
2019-02-07T13:38:48.513Z,65.00
2019-02-07T13:41:41.337Z,64.99
2019-02-07T13:44:38.075Z,65.04
2019-02-07T13:47:28.215Z,65.01
2019-02-07T13:50:18.707Z,65.78
2019-02-07T13:53:03.907Z,65.87
2019-02-07T13:55:52.257Z,64.95
2019-02-07T13:58:39.400Z,64.84
2019-02-07T14:01:28.604Z,65.12
2019-02-07T14:04:22.147Z,65.68
2019-02-07T14:07:11.033Z,65.23
2019-02-07T14:09:52.562Z,64.85
2019-02-07T14:12:45.845Z,65.76
2019-02-07T14:15:53.707Z,65.58
2019-02-07T14:18:35.668Z,64.39
2019-02-07T14:21:15.860Z,63.70
2019-02-07T14:23:54.214Z,63.49
2019-02-07T14:26:41.811Z,63.40
2019-02-07T14:29:29.173Z,63.08
2019-02-07T14:32:15.858Z,63.10
2019-02-07T14:35:04.851Z,63.21
2019-02-07T14:38:02.366Z,63.10
2019-02-07T14:40:47.219Z,63.08
2019-02-07T14:43:29.656Z,63.08
2019-02-07T14:46:19.912Z,63.43
2019-02-07T14:48:51.031Z,63.36
2019-02-07T14:51:22.325Z,64.44
2019-02-07T14:53:53.429Z,64.09
2019-02-07T14:56:26.050Z,64.22
2019-02-07T14:58:57.127Z,64.48
2019-02-07T15:01:29.943Z,64.65
2019-02-07T15:04:04.050Z,65.37
2019-02-07T15:06:37.428Z,65.37
2019-02-07T15:09:21.159Z,65.58
2019-02-07T15:11:52.195Z,65.67
2019-02-07T15:14:25.394Z,65.71
2019-02-07T15:16:56.678Z,65.27
2019-02-07T15:19:27.928Z,65.13
2019-02-07T15:21:59.251Z,65.11
2019-02-07T15:24:30.275Z,65.20
2019-02-07T15:27:01.491Z,65.38
2019-02-07T15:29:32.600Z,65.58
2019-02-07T15:32:03.641Z,65.75
2019-02-07T15:34:35.084Z,66.21
2019-02-07T15:37:06.659Z,65.78
2019-02-07T15:39:42.336Z,65.76
2019-02-07T15:42:15.238Z,66.27
2019-02-07T15:44:48.151Z,66.46
2019-02-07T15:47:19.193Z,66.14
2019-02-07T15:49:51.770Z,66.43
2019-02-07T15:52:22.920Z,66.84
2019-02-07T15:54:57.832Z,66.33
2019-02-07T15:57:30.412Z,66.66
2019-02-07T16:00:07.826Z,67.01
2019-02-07T16:02:43.922Z,66.21
2019-02-07T16:05:18.474Z,66.38
2019-02-07T16:07:50.144Z,66.19
2019-02-07T16:10:21.244Z,66.44
2019-02-07T16:13:02.536Z,66.72
2019-02-07T16:15:36.056Z,66.46
2019-02-07T16:18:07.265Z,66.22
2019-02-07T16:20:48.740Z,66.32
2019-02-07T16:23:12.826Z,65.92
2019-02-07T16:25:43.964Z,65.80
2019-02-07T16:28:15.361Z,65.76
2019-02-07T16:30:47.473Z,65.96
2019-02-07T16:33:18.621Z,65.88
2019-02-07T16:35:50.261Z,65.59
2019-02-07T16:38:21.438Z,65.27
2019-02-07T16:40:53.787Z,65.13
2019-02-07T16:43:26.103Z,65.07
2019-02-07T16:45:57.249Z,64.73
2019-02-07T16:48:28.289Z,64.45
2019-02-07T16:51:00.575Z,63.96
2019-02-07T16:53:31.919Z,63.66
2019-02-07T16:56:03.381Z,63.85
2019-02-07T16:58:34.490Z,63.69
2019-02-07T17:01:08.282Z,63.74
2019-02-07T17:03:40.691Z,63.68
2019-02-07T17:06:11.849Z,64.29
2019-02-07T17:08:43.415Z,64.31
2019-02-07T17:11:15.079Z,64.77
2019-02-07T17:13:46.123Z,64.52
2019-02-07T17:16:21.667Z,64.58
2019-02-07T17:18:54.596Z,64.35
2019-02-07T17:21:28.192Z,64.13
2019-02-07T17:23:59.157Z,64.35
2019-02-07T17:26:30.237Z,64.64
2019-02-07T17:29:02.344Z,64.44
2019-02-07T17:31:33.867Z,64.04
2019-02-07T17:34:06.183Z,63.78
2019-02-07T17:36:39.952Z,63.92
2019-02-07T17:39:12.586Z,63.93
2019-02-07T17:41:43.859Z,63.97
2019-02-07T17:44:15.035Z,64.14
2019-02-07T17:46:46.372Z,64.54
2019-02-07T17:49:19.043Z,64.41
2019-02-07T17:51:50.128Z,64.42
2019-02-07T17:54:21.414Z,64.11
2019-02-07T17:56:52.597Z,64.58
2019-02-07T17:59:24.131Z,64.29
2019-02-07T18:01:57.655Z,64.43
2019-02-07T18:04:30.058Z,64.05
2019-02-07T18:07:02.124Z,63.93
2019-02-07T18:09:34.283Z,63.87
2019-02-07T18:12:06.511Z,63.78
2019-02-07T18:14:37.466Z,64.03
2019-02-07T18:17:08.517Z,63.53
2019-02-07T18:19:40.353Z,63.47
2019-02-07T18:22:11.432Z,64.14
2019-02-07T18:24:44.973Z,64.05
2019-02-07T18:27:19.658Z,64.43
2019-02-07T18:29:50.763Z,64.09
2019-02-07T18:32:24.166Z,63.57
2019-02-07T18:34:55.731Z,63.84
2019-02-07T18:37:29.467Z,63.74
2019-02-07T18:40:02.294Z,63.56
2019-02-07T18:42:33.729Z,63.63
2019-02-07T18:45:06.330Z,62.99
2019-02-07T18:47:39.863Z,62.38
2019-02-07T18:50:17.802Z,62.15
2019-02-07T18:52:49.760Z,62.50
2019-02-07T18:55:20.795Z,62.64
2019-02-07T18:57:52.225Z,62.35
2019-02-07T19:00:30.067Z,62.10
2019-02-07T19:03:03.790Z,62.32
2019-02-07T19:05:35.116Z,61.97
2019-02-07T19:08:09.072Z,62.11
2019-02-07T19:10:41.950Z,62.06
2019-02-07T19:13:14.384Z,62.18
2019-02-07T19:16:06.231Z,62.23
2019-02-07T19:18:38.385Z,61.63
2019-02-07T19:21:10.456Z,61.95
2019-02-07T19:23:42.052Z,61.64
2019-02-07T19:26:13.587Z,61.54
2019-02-07T19:28:46.982Z,61.13
2019-02-07T19:31:18.714Z,60.91
2019-02-07T19:33:49.972Z,61.14
2019-02-07T19:36:21.504Z,60.31
2019-02-07T19:38:53.981Z,60.03
2019-02-07T19:41:25.290Z,59.95
2019-02-07T19:43:57.581Z,60.13
2019-02-07T19:46:29.588Z,60.13
2019-02-07T19:49:00.852Z,59.66
2019-02-07T19:51:32.841Z,59.97
2019-02-07T19:54:04.916Z,59.90
2019-02-07T19:56:36.418Z,60.00
2019-02-07T19:59:08.405Z,60.02
2019-02-07T20:01:40.219Z,59.79
2019-02-07T20:04:11.585Z,59.86
2019-02-07T20:06:44.869Z,59.87
2019-02-07T20:09:17.126Z,59.95
2019-02-07T20:11:49.617Z,59.57
2019-02-07T20:14:21.156Z,59.80
2019-02-07T20:16:52.863Z,59.89
2019-02-07T20:19:24.866Z,60.00
2019-02-07T20:21:56.082Z,60.13
2019-02-07T20:24:27.319Z,59.77
2019-02-07T20:26:59.668Z,59.95
2019-02-07T20:29:30.831Z,59.54
2019-02-07T20:32:02.242Z,59.57
2019-02-07T20:34:33.581Z,59.69
2019-02-07T20:37:04.743Z,59.55
2019-02-07T20:39:36.338Z,59.77
2019-02-07T20:42:07.463Z,59.82
2019-02-07T20:44:39.311Z,60.56
2019-02-07T20:47:10.716Z,60.97
2019-02-07T20:49:41.802Z,60.45
2019-02-07T20:52:13.164Z,60.67
2019-02-07T20:54:44.810Z,60.88
2019-02-07T20:57:15.913Z,60.30
2019-02-07T20:59:47.363Z,60.67
2019-02-07T21:02:18.662Z,60.73
2019-02-07T21:04:49.686Z,60.23
2019-02-07T21:07:21.108Z,60.51
2019-02-07T21:09:52.465Z,61.13
2019-02-07T21:12:23.646Z,60.88
2019-02-07T21:14:54.744Z,60.94
2019-02-07T21:17:25.961Z,60.88
2019-02-07T21:19:57.002Z,60.97
2019-02-07T21:22:34.487Z,60.95
2019-02-07T21:25:01.173Z,60.81
2019-02-07T21:27:32.516Z,60.77
2019-02-07T21:30:03.585Z,61.20
2019-02-07T21:32:35.865Z,61.29
2019-02-07T21:35:08.706Z,60.87
2019-02-07T21:37:39.855Z,60.85
2019-02-07T21:40:13.678Z,60.52
2019-02-07T21:42:45.024Z,60.53
2019-02-07T21:45:16.979Z,60.83
2019-02-07T21:47:48.356Z,60.59
2019-02-07T21:50:22.008Z,60.71
2019-02-07T21:52:53.412Z,60.86
2019-02-07T21:55:27.282Z,60.84
2019-02-07T21:57:58.692Z,60.85
2019-02-07T22:00:41.540Z,61.03
2019-02-07T22:03:14.896Z,61.16
2019-02-07T22:05:46.213Z,60.63
2019-02-07T22:08:20.077Z,61.05
2019-02-07T22:10:51.128Z,60.95
2019-02-07T22:13:22.432Z,61.21
2019-02-07T22:15:53.839Z,61.34
2019-02-07T22:18:25.526Z,61.60
2019-02-07T22:20:56.610Z,61.56
2019-02-07T22:23:27.722Z,61.58
2019-02-07T22:25:59.621Z,61.66
2019-02-07T22:28:31.042Z,61.58
2019-02-07T22:31:02.715Z,61.70
2019-02-07T22:33:33.967Z,61.78
2019-02-07T22:36:05.490Z,61.55
2019-02-07T22:38:37.120Z,61.41
2019-02-07T22:41:08.172Z,61.37
2019-02-07T22:43:39.393Z,61.46
2019-02-07T22:46:10.447Z,61.38
2019-02-07T22:48:41.707Z,61.66
2019-02-07T22:51:13.138Z,61.61
2019-02-07T22:53:45.158Z,61.71
2019-02-07T22:56:16.548Z,61.86
2019-02-07T22:58:49.144Z,61.88
2019-02-07T23:01:54.083Z,61.64
2019-02-07T23:04:27.743Z,61.47
2019-02-07T23:06:59.520Z,62.09
2019-02-07T23:09:31.818Z,62.03
2019-02-07T23:12:03.019Z,62.29
2019-02-07T23:14:34.997Z,61.98
2019-02-07T23:17:06.669Z,61.68
2019-02-07T23:19:40.053Z,61.73
2019-02-07T23:22:11.173Z,61.20
2019-02-07T23:24:43.472Z,61.31
2019-02-07T23:27:16.480Z,61.32
2019-02-07T23:29:50.185Z,61.94
2019-02-07T23:32:22.539Z,61.49
2019-02-07T23:34:57.119Z,61.34
2019-02-07T23:37:29.152Z,61.23
2019-02-07T23:40:00.694Z,61.43
2019-02-07T23:42:32.064Z,61.48
2019-02-07T23:45:07.073Z,61.42
2019-02-07T23:47:38.208Z,61.35
2019-02-07T23:50:10.148Z,61.25
2019-02-07T23:52:43.377Z,61.01
2019-02-07T23:55:15.746Z,61.23
2019-02-07T23:57:47.375Z,61.28
